Historique des mesures à Cassis (13260), France
Quotidien Résumé Fevrier 7, 2018 Unités:  Métrique/US    US   Métrique
« Précédent (Jour)
Suivant (Jour) »
Quotidien Hebdomadaire Mensuel Annuel Période au choix
  Maximum: Minimum: Moyenne:
Température: 32 °F /  TemperatureC °C 37.6 °F /  3.1 °C 40.5 °F /  4.7 °C
Point de rosée: 32 °F /  DewpointC °C 25.3 °F /  -3.7 °C 30.7 °F /  -0.7 °C
Humidité: Humidity % 58 % 65 %
Vitesse du vent: WindSpeedKMH mph /  0 km/h - 14.4 mph /  23.2 km/h
Rafales: WindSpeedGustKMH mph /  0 km/h - -
Vent:- - West
Pression: 0 in /  PressurehPa hPa 29.6 in /  1001.6 hPa -
Précipitations: 0 in /  0.0 mm    
Historical Graphs
 
 
Mesures pour : Fevrier 7, 2018
Heure Temperature Point de rosée Pression Vent Vitesse du vent Rafales Humidité Pluie (par heure) Conditions
32 °F /  TemperatureC °C 32 °F /  DewpointC °C 0 in /  PressurehPa hPa Calm     Humidity % 0 in /  HourlyPrecipMM mm SoftwareType W/m2
00:12 44.8 °F /  7.1 °C 38.7 °F /  3.7 °C 29.6 in /  1002.9 hPa NW 16.6 mph /  26.7 km/h 16.6 mph /  26.7 km/h 79 % 0 in /  0.0 mm open2300-1.11 W/m2
01:12 45 °F /  7.2 °C 38.8 °F /  3.8 °C 29.6 in /  1002.6 hPa Calm   2.9 mph /  4.7 km/h 79 % 0 in /  0.0 mm open2300-1.11 W/m2
02:12 42.6 °F /  5.9 °C 36.5 °F /  2.5 °C 29.6 in /  1002.9 hPa NNW 7.6 mph /  12.2 km/h 7.6 mph /  12.2 km/h 79 % 0 in /  0.0 mm open2300-1.11 W/m2
03:12 41.7 °F /  5.4 °C 35.6 °F /  2.0 °C 29.6 in /  1002.6 hPa WNW 11.6 mph /  18.7 km/h 11.6 mph /  18.7 km/h 79 % 0 in /  0.0 mm open2300-1.11 W/m2
04:12 40.5 °F /  4.7 °C 34.9 °F /  1.6 °C 29.6 in /  1002.3 hPa NNW 14.8 mph /  23.8 km/h 15.4 mph /  24.8 km/h 80 % 0 in /  0.0 mm open2300-1.11 W/m2
05:12 39.9 °F /  4.4 °C 34 °F /  1.1 °C 29.6 in /  1001.9 hPa WNW 2.9 mph /  4.7 km/h 19.5 mph /  31.4 km/h 79 % 0 in /  0.0 mm open2300-1.11 W/m2
06:12 38.8 °F /  3.8 °C 32.5 °F /  0.3 °C 29.6 in /  1001.6 hPa WNW 15.4 mph /  24.8 km/h 23.0 mph /  37 km/h 78 % 0 in /  0.0 mm open2300-1.11 W/m2
07:12 38.1 °F /  3.4 °C 31.3 °F /  -0.4 °C 29.6 in /  1002.3 hPa NNW 9.0 mph /  14.5 km/h 23.0 mph /  37 km/h 76 % 0 in /  0.0 mm open2300-1.11 W/m2
08:12 37.9 °F /  3.3 °C 29.7 °F /  -1.3 °C 29.6 in /  1002.9 hPa WNW 8.7 mph /  14 km/h 14.0 mph /  22.5 km/h 72 % 0 in /  0.0 mm open2300-1.11 W/m2
09:12 38.3 °F /  3.5 °C 28.9 °F /  -1.7 °C 29.6 in /  1003.3 hPa NNW 11.9 mph /  19.2 km/h 17.2 mph /  27.7 km/h 69 % 0 in /  0.0 mm open2300-1.11 W/m2
10:12 39.4 °F /  4.1 °C 28.9 °F /  -1.7 °C 29.6 in /  1003.3 hPa NW 14.3 mph /  23 km/h 33.8 mph /  54.4 km/h 66 % 0 in /  0.0 mm open2300-1.11 W/m2
11:12 41.2 °F /  5.1 °C 29.8 °F /  -1.2 °C 29.6 in /  1003.9 hPa NNW 14.3 mph /  23 km/h 22.4 mph /  36 km/h 64 % 0 in /  0.0 mm open2300-1.11 W/m2
12:12 43 °F /  6.1 °C 30.4 °F /  -0.9 °C 29.7 in /  1004.6 hPa North 14.3 mph /  23 km/h 23.3 mph /  37.5 km/h 61 % 0 in /  0.0 mm open2300-1.11 W/m2
13:12 43.9 °F /  6.6 °C 30.6 °F /  -0.8 °C 29.7 in /  1004.6 hPa NNW 18.3 mph /  29.5 km/h 18.3 mph /  29.5 km/h 59 % 0 in /  0.0 mm open2300-1.11 W/m2
14:12 44.4 °F /  6.9 °C 30.6 °F /  -0.8 °C 29.7 in /  1004.3 hPa NW 30.6 mph /  49.2 km/h 30.6 mph /  49.2 km/h 58 % 0 in /  0.0 mm open2300-1.11 W/m2
15:12 44.1 °F /  6.7 °C 30.2 °F /  -1.0 °C 29.7 in /  1004.6 hPa NNW 13.0 mph /  20.9 km/h 19.1 mph /  30.7 km/h 58 % 0 in /  0.0 mm open2300-1.11 W/m2
16:12 43 °F /  6.1 °C 29.7 °F /  -1.3 °C 29.7 in /  1005.0 hPa North 25.6 mph /  41.2 km/h 50.0 mph /  80.5 km/h 59 % 0 in /  0.0 mm open2300-1.11 W/m2
17:12 41.9 °F /  5.5 °C 28.9 °F /  -1.7 °C 29.7 in /  1006.0 hPa NNW 7.2 mph /  11.6 km/h 21.9 mph /  35.2 km/h 60 % 0 in /  0.0 mm open2300-1.11 W/m2
18:12 40.5 °F /  4.7 °C 28 °F /  -2.2 °C 29.7 in /  1006.7 hPa NW 13.7 mph /  22 km/h 18.0 mph /  29 km/h 61 % 0 in /  0.0 mm open2300-1.11 W/m2
19:12 39.6 °F /  4.2 °C 26.8 °F /  -2.9 °C 29.7 in /  1007.0 hPa WNW 28.8 mph /  46.3 km/h 28.8 mph /  46.3 km/h 60 % 0 in /  0.0 mm open2300-1.11 W/m2
20:12 39 °F /  3.9 °C 26.2 °F /  -3.2 °C 29.7 in /  1007.3 hPa North 16.9 mph /  27.2 km/h 50.4 mph /  81.1 km/h 60 % 0 in /  0.0 mm open2300-1.11 W/m2
21:12 38.1 °F /  3.4 °C 25.5 °F /  -3.6 °C 29.8 in /  1007.7 hPa North 16.6 mph /  26.7 km/h 27.4 mph /  44.1 km/h 60 % 0 in /  0.0 mm open2300-1.11 W/m2
22:12 37.8 °F /  3.2 °C 25.9 °F /  -3.4 °C 29.8 in /  1008.7 hPa WNW 29.4 mph /  47.3 km/h 29.4 mph /  47.3 km/h 62 % 0 in /  0.0 mm open2300-1.11 W/m2
23:12 37.6 °F /  3.1 °C 25.3 °F /  -3.7 °C 29.8 in /  1009.0 hPa WNW 17.7 mph /  28.5 km/h 22.7 mph /  36.5 km/h 61 % 0 in /  0.0 mm open2300-1.11 W/m2
Observations météo à CASSIS
WU-History script by Weather Underground - 1 mb